Terminal Aerodrome Forecast
Issued by NWS

Home | Current Version | Previous Version | Text Only | Print | Product List | Glossary On
Versions: 1 2 3 4 5 6 7 8 9 10 11 12 13 14 15 16
000
FTUS46 KEKA 032331
TAFCEC
TAF
KCEC 032331Z 0400/0424 30007KT P6SM OVC020
     FM040600 25005KT 5SM BR BKN010 OVC020
     FM041500 17004KT 6SM BR SCT015 BKN025 OVC050
     FM042100 31011KT 6SM -SHRA OVC025=

USA.gov is the U.S. government's official web portal to all federal, state and local government web resources and services.